TimeCDT,TemperatureF,Dew PointF,Humidity,Sea Level PressureIn,VisibilityMPH,Wind Direction,Wind SpeedMPH,Gust SpeedMPH,PrecipitationIn,Events,Conditions,WindDirDegrees,DateUTC
12:24 AM,61.0,60.1,97,29.91,10.0,SSE,9.2,-,N/A,,Mostly Cloudy,160,2013-05-17 05:24:00
12:52 AM,62.1,60.1,93,29.89,10.0,SSE,10.4,-,N/A,,Overcast,150,2013-05-17 05:52:00
1:52 AM,62.1,60.1,93,29.87,10.0,SSE,8.1,-,N/A,,Overcast,150,2013-05-17 06:52:00
2:31 AM,62.1,60.1,93,29.89,9.0,South,5.8,-,N/A,,Overcast,170,2013-05-17 07:31:00
2:52 AM,62.1,60.1,93,29.86,7.0,SSE,6.9,-,N/A,,Overcast,150,2013-05-17 07:52:00
3:52 AM,62.1,61.0,96,29.86,7.0,SE,4.6,-,N/A,,Overcast,140,2013-05-17 08:52:00
4:52 AM,62.1,61.0,96,29.87,8.0,South,3.5,-,N/A,,Overcast,180,2013-05-17 09:52:00
5:52 AM,62.1,61.0,96,29.88,9.0,SSE,3.5,-,N/A,,Overcast,160,2013-05-17 10:52:00
6:44 AM,63.0,61.0,93,29.92,8.0,SSE,4.6,-,N/A,,Overcast,160,2013-05-17 11:44:00
6:52 AM,63.0,61.0,93,29.90,8.0,SSE,5.8,-,N/A,,Overcast,150,2013-05-17 11:52:00
7:16 AM,64.0,61.0,90,29.92,10.0,South,3.5,-,N/A,,Overcast,170,2013-05-17 12:16:00
7:37 AM,64.0,61.0,90,29.93,10.0,SSE,4.6,-,N/A,,Overcast,150,2013-05-17 12:37:00
7:52 AM,64.9,62.1,90,29.91,10.0,South,4.6,-,N/A,,Overcast,190,2013-05-17 12:52:00
8:52 AM,66.0,61.0,84,29.93,10.0,Variable,4.6,-,N/A,,Overcast,0,2013-05-17 13:52:00
9:50 AM,66.2,60.8,83,29.95,10.0,ESE,3.5,-,N/A,,Overcast,120,2013-05-17 14:50:00
9:52 AM,66.0,61.0,84,29.93,10.0,SE,3.5,-,N/A,,Overcast,130,2013-05-17 14:52:00
10:20 AM,68.0,62.1,81,29.95,10.0,SE,3.5,-,N/A,,Scattered Clouds,140,2013-05-17 15:20:00
10:52 AM,71.1,61.0,70,29.93,10.0,Calm,Calm,-,N/A,,Clear,0,2013-05-17 15:52:00
11:21 AM,72.0,62.1,71,29.95,10.0,Calm,Calm,-,N/A,,Scattered Clouds,0,2013-05-17 16:21:00
11:41 AM,70.0,62.1,76,29.95,10.0,SW,6.9,-,N/A,,Mostly Cloudy,230,2013-05-17 16:41:00
11:52 AM,70.0,61.0,73,29.93,10.0,WSW,4.6,-,N/A,,Overcast,240,2013-05-17 16:52:00
12:52 PM,73.0,61.0,66,29.92,10.0,Calm,Calm,-,N/A,,Overcast,0,2013-05-17 17:52:00
1:52 PM,75.0,61.0,62,29.91,10.0,Variable,3.5,-,N/A,,Mostly Cloudy,0,2013-05-17 18:52:00
2:52 PM,77.0,62.1,60,29.90,10.0,NE,8.1,-,N/A,,Scattered Clouds,40,2013-05-17 19:52:00
3:52 PM,75.9,60.1,58,29.89,10.0,ESE,3.5,-,N/A,,Scattered Clouds,120,2013-05-17 20:52:00
4:52 PM,78.1,61.0,56,29.88,10.0,ESE,5.8,-,N/A,,Scattered Clouds,120,2013-05-17 21:52:00
5:52 PM,78.1,60.1,54,29.88,10.0,Calm,Calm,-,N/A,,Mostly Cloudy,0,2013-05-17 22:52:00
6:52 PM,75.9,61.0,60,29.87,10.0,SSW,3.5,-,N/A,,Clear,210,2013-05-17 23:52:00
7:52 PM,75.9,60.1,58,29.88,10.0,Calm,Calm,-,N/A,,Scattered Clouds,0,2013-05-18 00:52:00
8:52 PM,72.0,60.1,66,29.89,10.0,Calm,Calm,-,N/A,,Clear,0,2013-05-18 01:52:00
9:52 PM,66.9,60.1,79,29.91,10.0,SE,5.8,-,N/A,,Clear,130,2013-05-18 02:52:00
10:52 PM,64.9,60.1,84,29.92,10.0,SE,6.9,-,N/A,,Clear,130,2013-05-18 03:52:00
11:52 PM,64.9,60.1,84,29.93,10.0,SE,6.9,-,N/A,,Partly Cloudy,130,2013-05-18 04:52:00